Time;durP1;ratioP1;P1;durP2;ratioP2;P2;SDS_P1;SDS_P2;PMS_P1;PMS_P2;Temp;Humidity;BMP_temperature;BMP_pressure;BME280_temperature;BME280_humidity;BME280_pressure;Samples;Min_cycle;Max_cycle;Signal;HPM_P1;HPM_P2
2021/05/13 00:01:20;;;;;;;;;;;;;;;16.81;68.47;96936.25;1775015;80;20266;-88
2021/05/13 00:06:25;;;;;;;;;;;;;;;16.55;68.54;96938.00;1773624;80;21989;-89
2021/05/13 00:08:57;;;;;;;;;;;;;;;16.44;68.54;96934.48;1783465;80;25566;-89
2021/05/13 00:11:30;;;;;;;;;;;;;;;16.38;68.59;96926.45;1780057;80;24446;-89
2021/05/13 00:14:03;;;;;;;;;;;;;;;16.51;68.67;96933.27;1784099;80;20210;-89
2021/05/13 00:16:31;;;;;;;;;;;;;;;16.60;68.71;96940.12;1779520;80;24752;-89
2021/05/13 00:19:01;;;;;;;;;;;;;;;16.65;68.75;96936.44;1780275;80;22232;-89
2021/05/13 00:21:30;;;;;;;;;;;;;;;16.54;68.74;96937.67;1779866;80;25941;-89
2021/05/13 00:23:56;;;;;;;;;;;;;;;16.53;68.76;96939.20;1776706;79;24375;-88
2021/05/13 00:26:42;;;;;;;;;;;;;;;16.47;68.76;96931.50;1767029;80;20228;-88
2021/05/13 00:29:09;;;;;;;;;;;;;;;16.46;68.78;96935.13;1767990;80;24889;-89
2021/05/13 00:31:42;;;;;;;;;;;;;;;16.46;68.80;96929.03;1770873;80;22091;-89
2021/05/13 00:34:09;;;;;;;;;;;;;;;16.51;68.82;96926.66;1775248;80;26014;-89
2021/05/13 00:36:37;;;;;;;;;;;;;;;16.51;68.88;96925.34;1769672;80;24431;-88
2021/05/13 00:39:04;;;;;;;;;;;;;;;16.47;68.89;96929.35;1772540;80;20229;-88
2021/05/13 00:41:32;;;;;;;;;;;;;;;16.38;68.91;96923.81;1773247;80;24516;-88
2021/05/13 00:44:07;;;;;;;;;;;;;;;16.39;68.93;96922.81;1769455;80;21582;-89
2021/05/13 00:46:34;;;;;;;;;;;;;;;16.41;68.98;96914.23;1769876;80;26016;-89
2021/05/13 00:49:11;;;;;;;;;;;;;;;16.45;69.05;96916.81;1777673;80;24467;-89
2021/05/13 00:51:37;;;;;;;;;;;;;;;16.44;69.10;96908.57;1773664;79;20212;-89
2021/05/13 00:54:04;;;;;;;;;;;;;;;16.48;69.16;96903.23;1772060;80;24522;-89
2021/05/13 00:56:32;;;;;;;;;;;;;;;16.47;69.20;96901.13;1767564;80;21918;-89
2021/05/13 00:59:12;;;;;;;;;;;;;;;16.46;69.27;96899.98;1781111;80;25935;-89
2021/05/13 01:04:28;;;;;;;;;;;;;;;16.45;69.37;96898.34;1767600;80;20196;-89
2021/05/13 01:06:55;;;;;;;;;;;;;;;16.39;69.42;96898.55;1767582;80;24776;-88
2021/05/13 01:09:25;;;;;;;;;;;;;;;16.35;69.47;96893.33;1776292;80;22033;-89
2021/05/13 01:12:00;;;;;;;;;;;;;;;16.31;69.50;96904.72;1774140;79;26699;-89
2021/05/13 01:19:35;;;;;;;;;;;;;;;16.22;69.67;96895.25;1773295;79;25294;-89
2021/05/13 01:22:01;;;;;;;;;;;;;;;16.21;69.76;96898.06;1765977;80;22009;-89
2021/05/13 01:24:27;;;;;;;;;;;;;;;16.14;69.84;96881.33;1771413;80;20991;-88
2021/05/13 01:26:57;;;;;;;;;;;;;;;16.10;69.91;96887.45;1774818;80;20234;-89
2021/05/13 01:29:28;;;;;;;;;;;;;;;16.07;69.98;96877.27;1767888;80;20239;-89
2021/05/13 01:31:54;;;;;;;;;;;;;;;16.05;70.04;96876.61;1773978;80;24535;-89
2021/05/13 01:34:21;;;;;;;;;;;;;;;16.04;70.10;96880.23;1767491;80;21965;-89
2021/05/13 01:36:47;;;;;;;;;;;;;;;16.01;70.18;96871.38;1769525;80;25939;-89
2021/05/13 01:39:14;;;;;;;;;;;;;;;16.05;70.25;96868.69;1766341;80;24454;-89
2021/05/13 01:41:48;;;;;;;;;;;;;;;16.09;70.32;96867.33;1767547;80;20580;-89
2021/05/13 01:44:20;;;;;;;;;;;;;;;16.13;70.37;96858.08;1771707;80;25283;-89
2021/05/13 01:46:50;;;;;;;;;;;;;;;16.17;70.40;96856.70;1765855;80;22658;-89
2021/05/13 01:49:25;;;;;;;;;;;;;;;16.16;70.44;96848.46;1765708;80;26701;-90
2021/05/13 01:51:51;;;;;;;;;;;;;;;16.18;70.46;96852.25;1767709;80;24418;-89
2021/05/13 01:54:17;;;;;;;;;;;;;;;16.20;70.48;96851.05;1769649;80;20308;-89
2021/05/13 01:56:43;;;;;;;;;;;;;;;16.22;70.48;96848.23;1767440;80;24546;-89
2021/05/13 01:59:09;;;;;;;;;;;;;;;16.21;70.52;96835.53;1768064;80;21989;-88
2021/05/13 02:01:36;;;;;;;;;;;;;;;16.20;70.51;96839.17;1771132;80;26065;-88
2021/05/13 02:04:05;;;;;;;;;;;;;;;16.19;70.56;96834.09;1770936;80;24465;-88
2021/05/13 02:06:34;;;;;;;;;;;;;;;16.18;70.58;96836.41;1766654;80;20201;-89
2021/05/13 02:09:01;;;;;;;;;;;;;;;16.17;70.59;96838.73;1770398;80;24123;-89
2021/05/13 02:11:27;;;;;;;;;;;;;;;16.13;70.59;96833.00;1764649;80;22001;-89
2021/05/13 02:13:54;;;;;;;;;;;;;;;16.09;70.59;96829.06;1767458;80;26000;-89
2021/05/13 02:16:29;;;;;;;;;;;;;;;16.08;70.61;96833.22;1771104;80;24547;-90
2021/05/13 02:22:07;;;;;;;;;;;;;;;16.08;70.66;96820.03;1770167;80;24741;-90
2021/05/13 02:24:33;;;;;;;;;;;;;;;16.07;70.69;96816.56;1773192;79;20402;-89
2021/05/13 02:30:09;;;;;;;;;;;;;;;16.02;70.72;96808.37;1781897;80;21350;-88
2021/05/13 02:32:49;;;;;;;;;;;;;;;15.91;70.72;96800.90;1774696;80;20240;-88
2021/05/13 02:38:21;;;;;;;;;;;;;;;15.87;70.76;96793.03;1783509;79;22019;-88
2021/05/13 02:40:47;;;;;;;;;;;;;;;15.81;70.81;96787.16;1777327;80;25943;-89
2021/05/13 02:43:17;;;;;;;;;;;;;;;15.78;70.86;96788.81;1781837;80;20334;-89
2021/05/13 02:45:55;;;;;;;;;;;;;;;15.73;70.89;96792.00;1781809;80;20580;-89
2021/05/13 02:48:21;;;;;;;;;;;;;;;15.71;70.95;96793.98;1781031;80;24608;-90
2021/05/13 02:50:48;;;;;;;;;;;;;;;15.70;71.00;96795.50;1783176;80;22095;-90
2021/05/13 02:53:14;;;;;;;;;;;;;;;15.70;71.05;96790.23;1774459;80;25939;-90
2021/05/13 02:55:40;;;;;;;;;;;;;;;15.66;71.10;96794.20;1782312;80;24574;-90
2021/05/13 02:58:07;;;;;;;;;;;;;;;15.66;71.14;96791.06;1776848;80;20576;-89
2021/05/13 03:01:21;;;;;;;;;;;;;;;15.66;71.19;96792.87;1784127;80;24609;-88
2021/05/13 03:03:58;;;;;;;;;;;;;;;15.70;71.25;96795.00;1778347;80;22020;-89
2021/05/13 03:06:29;;;;;;;;;;;;;;;15.71;71.31;96787.91;1779144;80;26068;-89
2021/05/13 03:09:17;;;;;;;;;;;;;;;15.75;71.36;96787.87;1774388;80;25187;-89
2021/05/13 03:11:54;;;;;;;;;;;;;;;15.73;71.40;96784.58;1781559;80;20568;-88
2021/05/13 03:14:24;;;;;;;;;;;;;;;15.74;71.45;96784.41;1775686;80;25549;-88
2021/05/13 03:17:10;;;;;;;;;;;;;;;15.74;71.50;96775.67;1778915;80;22395;-89
2021/05/13 03:19:51;;;;;;;;;;;;;;;15.74;71.55;96776.50;1776438;80;26159;-88
2021/05/13 03:22:33;;;;;;;;;;;;;;;15.79;71.58;96781.23;1778706;80;24703;-88
2021/05/13 03:25:05;;;;;;;;;;;;;;;15.80;71.62;96774.46;1776310;80;20342;-88
2021/05/13 03:27:43;;;;;;;;;;;;;;;15.82;71.67;96775.58;1772466;80;24580;-88
2021/05/13 03:30:02;;;;;;;;;;;;;;;15.85;71.70;96771.28;1765466;80;22324;-89
2021/05/13 03:32:33;;;;;;;;;;;;;;;15.88;71.73;96770.91;1759541;80;26074;-88
2021/05/13 03:35:14;;;;;;;;;;;;;;;15.86;71.76;96757.09;1770763;80;24522;-89
2021/05/13 03:37:40;;;;;;;;;;;;;;;15.80;71.80;96750.72;1769112;80;20253;-89
2021/05/13 03:40:07;;;;;;;;;;;;;;;15.76;71.85;96750.77;1766299;80;24815;-89
2021/05/13 03:42:33;;;;;;;;;;;;;;;15.74;71.85;96751.94;1762143;80;22137;-89
2021/05/13 03:45:02;;;;;;;;;;;;;;;15.72;71.90;96747.33;1770558;80;25913;-89
2021/05/13 03:47:33;;;;;;;;;;;;;;;15.70;71.92;96749.34;1762243;80;24509;-89
2021/05/13 03:50:13;;;;;;;;;;;;;;;15.67;71.99;96743.09;1702882;83;21099;-89
2021/05/13 03:52:40;;;;;;;;;;;;;;;15.63;72.03;96740.51;1689253;83;25229;-89
2021/05/13 03:55:06;;;;;;;;;;;;;;;15.57;72.10;96745.17;1696587;84;22009;-89
2021/05/13 03:57:45;;;;;;;;;;;;;;;15.53;72.14;96741.27;1731070;82;25939;-88
2021/05/13 04:00:26;;;;;;;;;;;;;;;15.50;72.21;96738.44;1697802;82;24083;-88
2021/05/13 04:02:46;;;;;;;;;;;;;;;15.46;72.28;96734.04;1706181;83;20269;-88
2021/05/13 04:05:12;;;;;;;;;;;;;;;15.44;72.33;96737.84;1711938;83;20368;-88
2021/05/13 04:07:39;;;;;;;;;;;;;;;15.44;72.40;96736.02;1709649;83;21957;-88
2021/05/13 04:10:12;;;;;;;;;;;;;;;15.41;72.47;96728.98;1706620;83;25970;-88
2021/05/13 04:12:41;;;;;;;;;;;;;;;15.36;72.55;96732.16;1731527;82;20329;-88
2021/05/13 04:15:08;;;;;;;;;;;;;;;15.32;72.62;96728.25;1709945;82;20557;-88
2021/05/13 04:17:35;;;;;;;;;;;;;;;15.30;72.71;96722.33;1685037;83;24440;-88
2021/05/13 04:20:03;;;;;;;;;;;;;;;15.28;72.77;96724.31;1708702;83;22092;-87
2021/05/13 04:22:31;;;;;;;;;;;;;;;15.26;72.85;96721.55;1704621;83;26603;-88
2021/05/13 04:24:57;;;;;;;;;;;;;;;15.21;72.93;96722.58;1710367;83;24433;-88
2021/05/13 04:27:23;;;;;;;;;;;;;;;15.21;73.02;96721.27;1706774;83;20239;-88
2021/05/13 04:29:55;;;;;;;;;;;;;;;15.20;73.07;96715.17;1710592;83;20259;-88
2021/05/13 04:32:29;;;;;;;;;;;;;;;15.20;73.12;96713.86;1708936;83;22006;-89
2021/05/13 04:34:55;;;;;;;;;;;;;;;15.23;73.20;96719.25;1711121;83;26033;-88
2021/05/13 04:37:21;;;;;;;;;;;;;;;15.24;73.26;96711.67;1712410;83;20479;-88
2021/05/13 04:39:47;;;;;;;;;;;;;;;15.20;73.30;96703.31;1709807;83;20354;-88
2021/05/13 04:42:13;;;;;;;;;;;;;;;15.17;73.37;96702.33;1702076;83;20390;-88
2021/05/13 04:44:41;;;;;;;;;;;;;;;15.17;73.42;96701.02;1686202;83;20220;-88
2021/05/13 04:49:54;;;;;;;;;;;;;;;15.20;73.53;96695.91;1706338;83;24291;-88
2021/05/13 04:52:21;;;;;;;;;;;;;;;15.20;73.60;96688.00;1700816;83;20279;-89
2021/05/13 04:54:51;;;;;;;;;;;;;;;15.18;73.67;96684.21;1712371;83;25422;-88
2021/05/13 04:57:17;;;;;;;;;;;;;;;15.17;73.71;96682.56;1712384;83;21931;-89
2021/05/13 04:59:44;;;;;;;;;;;;;;;15.18;73.77;96678.95;1717394;83;26068;-89
2021/05/13 05:02:10;;;;;;;;;;;;;;;15.22;73.82;96679.42;1715451;83;24384;-89
2021/05/13 05:04:37;;;;;;;;;;;;;;;15.20;73.87;96678.28;1716245;83;20346;-89
2021/05/13 05:07:03;;;;;;;;;;;;;;;15.17;73.93;96680.43;1712835;83;24614;-89
2021/05/13 05:09:29;;;;;;;;;;;;;;;15.12;73.96;96674.88;1709042;83;20288;-89
2021/05/13 05:11:55;;;;;;;;;;;;;;;15.12;74.01;96676.20;1710835;83;21020;-89
2021/05/13 05:14:21;;;;;;;;;;;;;;;15.15;74.07;96674.05;1711574;83;24418;-89
2021/05/13 05:16:47;;;;;;;;;;;;;;;15.18;74.12;96681.58;1711260;83;20296;-89
2021/05/13 05:19:14;;;;;;;;;;;;;;;15.18;74.19;96678.13;1713932;83;20219;-89
2021/05/13 05:21:40;;;;;;;;;;;;;;;15.20;74.23;96678.77;1712636;83;21965;-88
2021/05/13 05:24:06;;;;;;;;;;;;;;;15.22;74.27;96675.47;1712117;83;26130;-88
2021/05/13 05:26:33;;;;;;;;;;;;;;;15.25;74.33;96671.14;1709940;83;24441;-88
2021/05/13 05:28:59;;;;;;;;;;;;;;;15.26;74.36;96670.16;1716020;83;20185;-88
2021/05/13 05:31:25;;;;;;;;;;;;;;;15.28;74.41;96672.91;1719273;83;24538;-88
2021/05/13 05:33:51;;;;;;;;;;;;;;;15.28;74.48;96663.69;1719684;83;21949;-87
2021/05/13 05:36:26;;;;;;;;;;;;;;;15.30;74.49;96666.98;1718915;83;25930;-88
2021/05/13 05:38:52;;;;;;;;;;;;;;;15.32;74.54;96671.58;1719798;83;24474;-88
2021/05/13 05:41:27;;;;;;;;;;;;;;;15.31;74.59;96667.30;1702240;83;20213;-88
2021/05/13 05:44:02;;;;;;;;;;;;;;;15.24;74.63;96663.73;1713991;83;24644;-88
2021/05/13 05:46:28;;;;;;;;;;;;;;;15.22;74.65;96662.30;1714498;83;22144;-89
2021/05/13 05:48:55;;;;;;;;;;;;;;;15.22;74.69;96657.02;1715773;83;26002;-89
2021/05/13 05:51:21;;;;;;;;;;;;;;;15.27;74.75;96655.48;1709273;83;24731;-89
2021/05/13 05:53:53;;;;;;;;;;;;;;;15.35;74.79;96655.89;1718986;83;20240;-89
2021/05/13 05:56:19;;;;;;;;;;;;;;;15.36;74.84;96660.17;1710984;83;24487;-89
2021/05/13 05:58:45;;;;;;;;;;;;;;;15.38;74.87;96662.92;1709694;83;22071;-88
2021/05/13 06:01:11;;;;;;;;;;;;;;;15.39;74.91;96666.39;1713959;83;20995;-88
2021/05/13 06:03:44;;;;;;;;;;;;;;;15.41;74.95;96665.22;1689214;83;24536;-89
2021/05/13 06:06:13;;;;;;;;;;;;;;;15.40;74.96;96667.53;1670188;83;20263;-89
2021/05/13 06:08:39;;;;;;;;;;;;;;;15.43;74.97;96667.19;1716102;83;24638;-89
2021/05/13 06:11:05;;;;;;;;;;;;;;;15.51;75.02;96667.58;1715571;83;22730;-89
2021/05/13 06:13:31;;;;;;;;;;;;;;;15.56;75.04;96669.20;1715898;83;26058;-89
2021/05/13 06:15:57;;;;;;;;;;;;;;;15.58;75.05;96665.08;1716431;83;24532;-88
2021/05/13 06:18:23;;;;;;;;;;;;;;;15.62;75.07;96666.34;1712501;83;20310;-88
2021/05/13 06:20:52;;;;;;;;;;;;;;;15.65;75.09;96669.95;1714444;83;24150;-89
2021/05/13 06:23:23;;;;;;;;;;;;;;;15.64;75.09;96668.31;1683082;83;20276;-89
2021/05/13 06:25:49;;;;;;;;;;;;;;;15.64;75.10;96672.27;1708024;82;26039;-89
2021/05/13 06:28:16;;;;;;;;;;;;;;;15.63;75.12;96670.13;1714534;83;24557;-89
2021/05/13 06:30:45;;;;;;;;;;;;;;;15.65;75.12;96670.78;1719340;83;20220;-89
2021/05/13 06:33:13;;;;;;;;;;;;;;;15.70;75.12;96672.86;1719389;83;25287;-89
2021/05/13 06:35:39;;;;;;;;;;;;;;;15.73;75.15;96671.98;1708026;83;22142;-89
2021/05/13 06:38:05;;;;;;;;;;;;;;;15.75;75.16;96670.00;1720148;83;20884;-89
2021/05/13 06:40:31;;;;;;;;;;;;;;;15.76;75.16;96664.23;1707508;83;24500;-89
2021/05/13 06:42:57;;;;;;;;;;;;;;;15.76;75.17;96661.59;1718944;83;20306;-89
2021/05/13 06:45:23;;;;;;;;;;;;;;;15.75;75.16;96664.72;1720456;83;20303;-89
2021/05/13 06:47:49;;;;;;;;;;;;;;;15.77;75.17;96665.34;1714998;83;20219;-89
2021/05/13 06:50:19;;;;;;;;;;;;;;;15.82;75.16;96670.06;1712857;83;26506;-90
2021/05/13 06:52:48;;;;;;;;;;;;;;;15.81;75.18;96670.59;1692790;84;24450;-89
2021/05/13 06:55:17;;;;;;;;;;;;;;;15.80;75.19;96674.23;1697142;83;20222;-89
2021/05/13 06:57:43;;;;;;;;;;;;;;;15.79;75.21;96666.48;1719626;83;24603;-89
2021/05/13 07:00:10;;;;;;;;;;;;;;;15.76;75.23;96666.37;1712946;83;22000;-89
2021/05/13 07:02:40;;;;;;;;;;;;;;;15.74;75.22;96664.90;1711862;83;25948;-89
2021/05/13 07:05:04;;;;;;;;;;;;;;;15.71;75.24;96655.52;1712661;83;24999;-89
2021/05/13 07:07:31;;;;;;;;;;;;;;;15.69;75.26;96654.90;1711787;83;20218;-89
2021/05/13 07:09:57;;;;;;;;;;;;;;;15.68;75.30;96652.44;1703768;83;24552;-88
2021/05/13 07:12:24;;;;;;;;;;;;;;;15.62;75.35;96643.44;1716695;83;22765;-88
2021/05/13 07:14:53;;;;;;;;;;;;;;;15.57;75.37;96644.98;1713753;83;26019;-88
2021/05/13 07:17:22;;;;;;;;;;;;;;;15.55;75.42;96640.41;1696214;83;25192;-89
2021/05/13 07:19:48;;;;;;;;;;;;;;;15.55;75.47;96645.16;1713818;83;20528;-89
2021/05/13 07:22:14;;;;;;;;;;;;;;;15.62;75.54;96643.44;1719848;83;20239;-89
2021/05/13 07:24:41;;;;;;;;;;;;;;;15.67;75.58;96642.38;1702555;83;22061;-89
2021/05/13 07:27:09;;;;;;;;;;;;;;;15.70;75.63;96646.49;1688602;83;25952;-89
2021/05/13 07:29:36;;;;;;;;;;;;;;;15.74;75.68;96645.12;1667013;85;24468;-89
2021/05/13 07:32:02;;;;;;;;;;;;;;;15.75;75.72;96640.98;1724456;83;20211;-88
2021/05/13 07:34:28;;;;;;;;;;;;;;;15.79;75.76;96640.11;1724542;83;24626;-88
2021/05/13 07:36:54;;;;;;;;;;;;;;;15.81;75.80;96640.26;1725181;83;22029;-89
2021/05/13 07:39:21;;;;;;;;;;;;;;;15.88;75.83;96645.09;1727903;83;26030;-89
2021/05/13 07:41:47;;;;;;;;;;;;;;;15.91;75.86;96637.33;1724235;83;24520;-89
2021/05/13 07:44:14;;;;;;;;;;;;;;;15.89;75.86;96642.78;1725140;83;20326;-88
2021/05/13 07:46:47;;;;;;;;;;;;;;;15.88;75.89;96636.36;1723256;83;24624;-89
2021/05/13 07:49:13;;;;;;;;;;;;;;;15.90;75.88;96631.73;1723154;83;22139;-89
2021/05/13 07:51:44;;;;;;;;;;;;;;;15.98;75.91;96630.32;1712583;83;20903;-88
2021/05/13 07:54:10;;;;;;;;;;;;;;;16.01;75.90;96628.62;1721229;83;24399;-89
2021/05/13 07:56:37;;;;;;;;;;;;;;;16.04;75.92;96626.13;1722918;83;20557;-89
2021/05/13 07:59:03;;;;;;;;;;;;;;;16.10;75.91;96622.22;1724073;82;24790;-89
2021/05/13 08:01:32;;;;;;;;;;;;;;;16.16;75.93;96624.13;1725992;83;22735;-89
2021/05/13 08:03:58;;;;;;;;;;;;;;;16.17;75.94;96625.77;1723967;83;25953;-89
2021/05/13 08:06:24;;;;;;;;;;;;;;;16.16;75.94;96629.40;1727096;82;20278;-89
2021/05/13 08:08:50;;;;;;;;;;;;;;;16.20;75.97;96627.23;1723904;83;20520;-89
2021/05/13 08:11:16;;;;;;;;;;;;;;;16.22;75.95;96630.48;1722937;82;24514;-90
2021/05/13 08:13:42;;;;;;;;;;;;;;;16.19;75.94;96630.36;1724341;83;21975;-90
2021/05/13 08:16:11;;;;;;;;;;;;;;;16.22;75.95;96627.34;1724869;83;25938;-89
2021/05/13 08:18:38;;;;;;;;;;;;;;;16.26;75.96;96621.99;1724186;83;24152;-89
2021/05/13 08:21:04;;;;;;;;;;;;;;;16.31;75.93;96631.98;1726611;83;20224;-89
2021/05/13 08:23:30;;;;;;;;;;;;;;;16.30;75.94;96635.16;1725314;83;24564;-89
2021/05/13 08:25:56;;;;;;;;;;;;;;;16.29;75.94;96634.84;1722926;82;22058;-89
2021/05/13 08:28:24;;;;;;;;;;;;;;;16.28;75.92;96631.05;1732384;82;25960;-89
2021/05/13 08:30:50;;;;;;;;;;;;;;;16.28;75.90;96631.87;1729940;82;24531;-89
2021/05/13 08:33:16;;;;;;;;;;;;;;;16.35;75.92;96630.63;1730946;82;20278;-88
2021/05/13 08:35:43;;;;;;;;;;;;;;;16.47;75.93;96632.28;1714378;82;24585;-89
2021/05/13 08:38:09;;;;;;;;;;;;;;;16.58;75.92;96629.93;1740027;82;22030;-89
2021/05/13 08:40:35;;;;;;;;;;;;;;;16.59;75.96;96625.50;1700330;83;25907;-88
2021/05/13 08:43:01;;;;;;;;;;;;;;;16.66;75.92;96629.03;1716934;82;24392;-89
2021/05/13 08:45:30;;;;;;;;;;;;;;;16.76;75.93;96632.17;1715003;82;20348;-88
2021/05/13 08:48:01;;;;;;;;;;;;;;;16.79;75.95;96626.52;1734712;82;25036;-89
2021/05/13 08:50:26;;;;;;;;;;;;;;;16.81;75.92;96624.48;1704558;83;22086;-90
2021/05/13 08:52:52;;;;;;;;;;;;;;;16.84;75.89;96629.91;1700518;84;20937;-88
2021/05/13 08:55:18;;;;;;;;;;;;;;;16.80;75.84;96628.66;1730664;82;20315;-89
2021/05/13 08:57:44;;;;;;;;;;;;;;;16.81;75.78;96625.81;1705997;82;20325;-89
2021/05/13 09:00:12;;;;;;;;;;;;;;;16.94;75.75;96627.76;1705843;82;24764;-89
2021/05/13 09:02:48;;;;;;;;;;;;;;;17.02;75.72;96621.03;1695519;82;21950;-89
2021/05/13 09:05:15;;;;;;;;;;;;;;;17.00;75.69;96624.36;1740080;82;25899;-89
2021/05/13 09:07:41;;;;;;;;;;;;;;;16.93;75.67;96624.30;1703554;83;24523;-89
2021/05/13 09:10:08;;;;;;;;;;;;;;;17.02;75.65;96624.46;1727416;82;20295;-89
2021/05/13 09:12:48;;;;;;;;;;;;;;;17.07;75.62;96624.70;1712619;82;24660;-89
2021/05/13 09:15:20;;;;;;;;;;;;;;;17.08;75.57;96628.16;1728271;82;22172;-89
2021/05/13 09:17:47;;;;;;;;;;;;;;;17.13;75.54;96623.12;1721012;82;22434;-89
2021/05/13 09:20:32;;;;;;;;;;;;;;;17.19;75.52;96621.53;1730894;82;24545;-89
2021/05/13 09:23:12;;;;;;;;;;;;;;;17.26;75.51;96615.80;1684462;82;20195;-89
2021/05/13 09:25:38;;;;;;;;;;;;;;;17.28;75.51;96617.75;1715717;82;24661;-89
2021/05/13 09:28:05;;;;;;;;;;;;;;;17.40;75.49;96614.89;1696568;82;22040;-89
2021/05/13 09:30:31;;;;;;;;;;;;;;;17.50;75.51;96616.67;1680803;85;26039;-89
2021/05/13 09:32:59;;;;;;;;;;;;;;;17.53;75.50;96615.77;1680163;85;24493;-89
2021/05/13 09:35:27;;;;;;;;;;;;;;;17.59;75.50;96614.17;1678778;85;20343;-89
2021/05/13 09:37:55;;;;;;;;;;;;;;;17.66;75.48;96616.39;1681907;85;24728;-89
2021/05/13 09:40:22;;;;;;;;;;;;;;;17.65;75.46;96616.08;1680377;85;22876;-89
2021/05/13 09:42:51;;;;;;;;;;;;;;;17.63;75.40;96615.44;1652983;85;21990;-89
2021/05/13 09:45:17;;;;;;;;;;;;;;;17.65;75.37;96604.67;1678261;85;24437;-89
2021/05/13 09:47:43;;;;;;;;;;;;;;;17.65;75.32;96606.81;1680912;85;20258;-89
2021/05/13 09:50:20;;;;;;;;;;;;;;;17.60;75.25;96603.13;1675135;83;24599;-89
2021/05/13 09:53:00;;;;;;;;;;;;;;;17.60;75.22;96604.44;1679884;85;21953;-89
2021/05/13 09:55:28;;;;;;;;;;;;;;;17.64;75.17;96598.56;1675868;85;26704;-89
2021/05/13 09:57:56;;;;;;;;;;;;;;;17.63;75.13;96595.59;1676305;85;24752;-89
2021/05/13 10:00:27;;;;;;;;;;;;;;;17.60;75.10;96593.86;1681306;84;20227;-89
2021/05/13 10:02:53;;;;;;;;;;;;;;;17.63;75.07;96596.10;1679968;85;24347;-89
2021/05/13 10:05:19;;;;;;;;;;;;;;;17.61;75.02;96595.00;1680957;85;22109;-89
2021/05/13 10:07:45;;;;;;;;;;;;;;;17.62;75.00;96591.31;1679174;85;26030;-89
2021/05/13 10:10:14;;;;;;;;;;;;;;;17.64;74.93;96584.52;1679704;85;20350;-88
2021/05/13 10:12:40;;;;;;;;;;;;;;;17.63;74.89;96582.88;1680389;85;20577;-88
2021/05/13 10:15:15;;;;;;;;;;;;;;;17.64;74.83;96577.91;1676089;83;24564;-89
2021/05/13 10:17:42;;;;;;;;;;;;;;;17.65;74.80;96584.33;1681340;83;21941;-89
2021/05/13 10:20:09;;;;;;;;;;;;;;;17.62;74.75;96579.95;1677504;85;26819;-89
2021/05/13 10:22:36;;;;;;;;;;;;;;;17.62;74.71;96569.36;1678691;85;24466;-89
2021/05/13 10:25:18;;;;;;;;;;;;;;;17.60;74.70;96566.91;1682385;85;20207;-89
2021/05/13 10:27:46;;;;;;;;;;;;;;;17.56;74.67;96568.28;1686657;82;24091;-89
2021/05/13 10:30:15;;;;;;;;;;;;;;;17.52;74.63;96566.52;1715814;82;22011;-89
2021/05/13 10:32:40;;;;;;;;;;;;;;;17.46;74.62;96567.80;1707479;82;25977;-89
2021/05/13 10:35:12;;;;;;;;;;;;;;;17.42;74.59;96571.86;1711801;82;20380;-88
2021/05/13 10:37:39;;;;;;;;;;;;;;;17.40;74.60;96562.79;1707721;82;20282;-89
2021/05/13 10:40:21;;;;;;;;;;;;;;;17.49;74.60;96564.28;1710000;82;24563;-89
2021/05/13 10:42:44;;;;;;;;;;;;;;;17.50;74.57;96570.39;1708397;82;22021;-88
2021/05/13 10:45:28;;;;;;;;;;;;;;;17.48;74.58;96569.25;1711550;82;25947;-88
2021/05/13 10:48:18;;;;;;;;;;;;;;;17.44;74.54;96572.49;1708286;82;25423;-88
2021/05/13 10:50:49;;;;;;;;;;;;;;;17.39;74.49;96571.76;1713301;82;20212;-88
2021/05/13 10:53:33;;;;;;;;;;;;;;;17.41;74.49;96569.72;1710402;82;24646;-90
2021/05/13 10:56:22;;;;;;;;;;;;;;;17.42;74.46;96575.32;1714547;82;22816;-89
2021/05/13 10:58:59;;;;;;;;;;;;;;;17.46;74.45;96568.63;1704943;82;26200;-89
2021/05/13 11:01:30;;;;;;;;;;;;;;;17.50;74.47;96571.72;1711182;82;24470;-89
2021/05/13 11:06:52;;;;;;;;;;;;;;;17.65;74.51;96574.25;1709862;83;24541;-90
2021/05/13 11:09:34;;;;;;;;;;;;;;;17.67;74.53;96579.67;1714739;82;21966;-89
2021/05/13 11:12:11;;;;;;;;;;;;;;;17.67;74.56;96574.38;1712129;82;25971;-89
2021/05/13 11:17:50;;;;;;;;;;;;;;;17.64;74.54;96573.43;1680114;82;20182;-89
2021/05/13 11:20:19;;;;;;;;;;;;;;;17.70;74.52;96577.94;1707706;82;25222;-89
2021/05/13 11:22:56;;;;;;;;;;;;;;;17.76;74.53;96575.02;1708973;82;21955;-88
2021/05/13 11:25:23;;;;;;;;;;;;;;;17.78;74.55;96575.11;1720238;82;26064;-89
2021/05/13 11:27:49;;;;;;;;;;;;;;;17.79;74.55;96575.92;1713669;82;24387;-88
2021/05/13 11:30:16;;;;;;;;;;;;;;;17.80;74.55;96566.48;1716152;82;20386;-89
2021/05/13 11:32:42;;;;;;;;;;;;;;;17.82;74.56;96565.78;1716760;82;24547;-88
2021/05/13 11:35:09;;;;;;;;;;;;;;;17.79;74.54;96559.55;1721682;82;21946;-89
2021/05/13 11:37:36;;;;;;;;;;;;;;;17.76;74.50;96565.25;1726184;82;26059;-89
2021/05/13 11:40:21;;;;;;;;;;;;;;;17.70;74.46;96556.77;1723769;82;24506;-89
2021/05/13 11:42:47;;;;;;;;;;;;;;;17.65;74.43;96555.23;1723093;82;20298;-88
2021/05/13 11:45:22;;;;;;;;;;;;;;;17.62;74.39;96556.14;1718512;82;20317;-89
2021/05/13 11:47:49;;;;;;;;;;;;;;;17.57;74.36;96550.88;1724410;82;22055;-89
2021/05/13 11:50:27;;;;;;;;;;;;;;;17.52;74.37;96548.51;1730570;82;26876;-88
2021/05/13 11:53:04;;;;;;;;;;;;;;;17.46;74.38;96540.85;1722077;82;24527;-89
2021/05/13 11:55:31;;;;;;;;;;;;;;;17.41;74.39;96552.53;1715178;82;20272;-89
2021/05/13 11:57:57;;;;;;;;;;;;;;;17.41;74.39;96557.81;1725649;82;24606;-88
2021/05/13 12:00:26;;;;;;;;;;;;;;;17.46;74.43;96553.26;1721780;82;20409;-89
2021/05/13 12:03:08;;;;;;;;;;;;;;;17.50;74.48;96553.20;1683898;83;25790;-88
2021/05/13 12:05:36;;;;;;;;;;;;;;;17.54;74.59;96544.67;1698370;82;24696;-89
2021/05/13 12:08:06;;;;;;;;;;;;;;;17.61;74.65;96539.45;1720023;83;20243;-89
2021/05/13 12:10:34;;;;;;;;;;;;;;;17.68;74.71;96538.95;1726892;82;24779;-88
2021/05/13 12:13:06;;;;;;;;;;;;;;;17.73;74.74;96536.52;1724008;82;22244;-89
2021/05/13 12:15:32;;;;;;;;;;;;;;;17.75;74.79;96539.80;1726415;82;26314;-88
2021/05/13 12:17:58;;;;;;;;;;;;;;;17.81;74.84;96536.36;1717020;82;20787;-89
2021/05/13 12:20:24;;;;;;;;;;;;;;;17.88;74.86;96541.68;1719599;82;20731;-89
2021/05/13 12:22:51;;;;;;;;;;;;;;;17.95;74.89;96540.66;1719829;82;25007;-88
2021/05/13 12:25:18;;;;;;;;;;;;;;;18.03;74.90;96545.48;1722319;82;22003;-89
2021/05/13 12:27:47;;;;;;;;;;;;;;;18.11;74.91;96546.64;1723790;82;25972;-89
2021/05/13 12:30:20;;;;;;;;;;;;;;;18.19;74.94;96542.47;1712844;82;24430;-88
2021/05/13 12:32:46;;;;;;;;;;;;;;;18.23;74.92;96546.33;1720051;82;20240;-89
2021/05/13 12:35:33;;;;;;;;;;;;;;;18.33;74.99;96540.95;1725488;83;24739;-89
2021/05/13 12:38:16;;;;;;;;;;;;;;;18.42;75.04;96541.59;1728800;83;21906;-88
2021/05/13 12:40:43;;;;;;;;;;;;;;;18.45;75.05;96543.82;1727181;82;25997;-88
2021/05/13 12:43:10;;;;;;;;;;;;;;;18.50;75.00;96536.08;1716759;82;24428;-88
2021/05/13 12:45:44;;;;;;;;;;;;;;;18.53;74.96;96533.05;1720913;82;20223;-88
2021/05/13 12:48:10;;;;;;;;;;;;;;;18.57;74.93;96534.29;1722304;82;24757;-89
2021/05/13 12:50:41;;;;;;;;;;;;;;;18.62;74.89;96533.17;1717797;82;21920;-88
2021/05/13 12:53:09;;;;;;;;;;;;;;;18.65;74.87;96530.12;1721962;82;26197;-88
2021/05/13 12:55:41;;;;;;;;;;;;;;;18.61;74.79;96526.23;1718846;82;25130;-88
2021/05/13 12:58:12;;;;;;;;;;;;;;;18.52;74.68;96527.94;1716945;82;20215;-88
2021/05/13 13:00:46;;;;;;;;;;;;;;;18.50;74.58;96537.41;1714097;82;24877;-88
2021/05/13 13:03:16;;;;;;;;;;;;;;;18.56;74.57;96528.68;1727292;82;22004;-88
2021/05/13 13:05:42;;;;;;;;;;;;;;;18.76;74.61;96535.33;1727424;82;26128;-88
2021/05/13 13:08:08;;;;;;;;;;;;;;;18.93;74.70;96531.20;1725339;82;24696;-88
2021/05/13 13:10:44;;;;;;;;;;;;;;;19.03;74.67;96528.16;1724275;82;20296;-88
2021/05/13 13:13:25;;;;;;;;;;;;;;;19.13;74.68;96532.52;1722207;82;24796;-89
2021/05/13 13:15:56;;;;;;;;;;;;;;;19.10;74.57;96535.57;1716625;82;22091;-89
2021/05/13 13:18:26;;;;;;;;;;;;;;;19.11;74.48;96529.25;1722700;82;26810;-89
2021/05/13 13:20:53;;;;;;;;;;;;;;;19.09;74.37;96530.77;1715876;82;23965;-90
2021/05/13 13:23:21;;;;;;;;;;;;;;;19.09;74.25;96537.94;1687196;82;20276;-88
2021/05/13 13:25:48;;;;;;;;;;;;;;;19.12;74.16;96539.66;1715307;82;24780;-89
2021/05/13 13:28:14;;;;;;;;;;;;;;;19.13;74.12;96545.27;1711573;82;21995;-88